Time;durP1;ratioP1;P1;durP2;ratioP2;P2;SDS_P1;SDS_P2;PMS_P1;PMS_P2;Temp;Humidity;BMP_temperature;BMP_pressure;BME280_temperature;BME280_humidity;BME280_pressure;Samples;Min_cycle;Max_cycle;Signal;HPM_P1;HPM_P2
2021/06/04 00:00:35;;;;;;;6.72;4.03;;;19.20;53.40;;;;;;4898708;29;20044;-77
2021/06/04 00:03:19;;;;;;;6.13;3.67;;;19.20;53.50;;;;;;4882506;29;20044;-78
2021/06/04 00:05:49;;;;;;;4.40;3.75;;;19.20;53.50;;;;;;4899526;29;20037;-77
2021/06/04 00:08:18;;;;;;;5.13;3.55;;;19.10;53.50;;;;;;4899288;29;20071;-79
2021/06/04 00:10:55;;;;;;;7.00;3.45;;;19.10;53.50;;;;;;4882242;29;20051;-79
2021/06/04 00:13:24;;;;;;;8.68;3.30;;;19.10;53.50;;;;;;4899155;29;20157;-79
2021/06/04 00:15:53;;;;;;;7.85;3.60;;;19.10;53.60;;;;;;4899152;29;20148;-81
2021/06/04 00:18:19;;;;;;;6.95;3.40;;;19.10;53.60;;;;;;4882222;29;20154;-80
2021/06/04 00:20:45;;;;;;;7.28;3.15;;;19.10;54.30;;;;;;4898846;29;20453;-80
2021/06/04 00:23:11;;;;;;;10.27;3.30;;;19.00;53.60;;;;;;4899339;29;20045;-79
2021/06/04 00:25:37;;;;;;;4.20;2.55;;;19.00;53.70;;;;;;4882577;29;20115;-82
2021/06/04 00:28:04;;;;;;;7.85;3.15;;;19.00;54.00;;;;;;4898861;29;20123;-86
2021/06/04 00:30:30;;;;;;;4.00;2.65;;;19.00;53.70;;;;;;4881995;29;20100;-84
2021/06/04 00:32:57;;;;;;;5.97;2.80;;;19.00;53.80;;;;;;4898642;29;20036;-84
2021/06/04 00:35:23;;;;;;;3.78;2.75;;;19.00;53.80;;;;;;4898849;29;20497;-79
2021/06/04 00:37:50;;;;;;;3.65;2.78;;;19.00;53.80;;;;;;4898586;29;20521;-79
2021/06/04 00:40:29;;;;;;;8.38;2.60;;;18.90;53.80;;;;;;4898575;29;20418;-78
2021/06/04 00:42:56;;;;;;;4.03;2.40;;;18.90;53.80;;;;;;4882283;29;20064;-79
2021/06/04 00:45:27;;;;;;;5.50;2.42;;;18.90;53.80;;;;;;4881687;29;20405;-79
2021/06/04 00:47:53;;;;;;;4.70;2.38;;;18.90;53.80;;;;;;4898858;29;20037;-79
2021/06/04 00:50:29;;;;;;;3.53;2.50;;;18.90;53.80;;;;;;4898292;29;20036;-79
2021/06/04 00:52:57;;;;;;;3.30;2.50;;;18.90;53.80;;;;;;4882029;29;20036;-81
2021/06/04 00:55:24;;;;;;;4.40;2.70;;;18.90;54.30;;;;;;4881571;29;20032;-80
2021/06/04 00:57:54;;;;;;;4.60;2.88;;;18.80;53.80;;;;;;4882073;29;20049;-81
2021/06/04 01:00:28;;;;;;;3.60;2.17;;;18.90;53.90;;;;;;4881647;29;20572;-77
2021/06/04 01:02:56;;;;;;;5.30;2.40;;;18.80;53.80;;;;;;4898544;29;20036;-79
2021/06/04 01:05:24;;;;;;;5.55;2.60;;;18.80;53.80;;;;;;4881483;29;20040;-79
2021/06/04 01:08:08;;;;;;;4.07;2.40;;;18.80;53.80;;;;;;4881837;29;20040;-79
2021/06/04 01:10:44;;;;;;;2.75;2.40;;;18.80;53.80;;;;;;4866373;29;20097;-79
2021/06/04 01:13:39;;;;;;;4.78;2.22;;;18.80;53.90;;;;;;4897361;29;20068;-79
2021/06/04 01:16:27;;;;;;;4.10;2.80;;;18.80;53.80;;;;;;4876437;29;20110;-78
2021/06/04 01:19:26;;;;;;;4.57;2.30;;;18.80;53.80;;;;;;4881393;29;20043;-81
2021/06/04 01:21:57;;;;;;;3.13;2.53;;;18.80;53.90;;;;;;4897700;29;20096;-80
2021/06/04 01:24:41;;;;;;;2.80;2.42;;;18.70;53.80;;;;;;4881167;29;20047;-79
2021/06/04 01:27:18;;;;;;;2.53;2.30;;;18.80;54.00;;;;;;4881635;29;20124;-78
2021/06/04 01:30:00;;;;;;;2.63;2.43;;;18.80;54.10;;;;;;4881040;29;20065;-79
2021/06/04 01:32:30;;;;;;;3.30;2.00;;;18.80;53.90;;;;;;4898105;29;20164;-78
2021/06/04 01:35:14;;;;;;;3.03;2.10;;;18.90;53.90;;;;;;4881704;29;20123;-79
2021/06/04 01:37:42;;;;;;;4.50;2.42;;;19.00;53.80;;;;;;4881125;29;20367;-80
2021/06/04 01:40:13;;;;;;;3.30;2.33;;;19.00;53.70;;;;;;4881217;29;20048;-79
2021/06/04 01:42:45;;;;;;;4.20;2.50;;;19.10;53.60;;;;;;4881406;29;20037;-78
2021/06/04 01:45:22;;;;;;;2.40;2.20;;;18.90;53.70;;;;;;4897901;29;20414;-79
2021/06/04 01:48:00;;;;;;;2.95;2.00;;;18.90;53.90;;;;;;4881115;29;20106;-79
2021/06/04 01:50:38;;;;;;;4.63;2.20;;;18.90;53.80;;;;;;4881214;29;20052;-79
2021/06/04 01:53:44;;;;;;;6.13;2.10;;;18.90;53.90;;;;;;4897682;29;20100;-82
2021/06/04 01:56:26;;;;;;;4.05;2.00;;;18.90;54.00;;;;;;4788521;29;20084;-83
2021/06/04 01:58:58;;;;;;;5.20;2.00;;;18.80;53.80;;;;;;4887633;29;20080;-83
2021/06/04 02:01:41;;;;;;;4.47;1.88;;;18.80;54.00;;;;;;4896737;29;20099;-82
2021/06/04 02:04:12;;;;;;;3.75;1.90;;;18.80;54.10;;;;;;4880636;29;20048;-81
2021/06/04 02:06:47;;;;;;;4.45;2.10;;;18.80;53.70;;;;;;4880936;29;20142;-80
2021/06/04 02:09:18;;;;;;;5.38;2.50;;;18.90;53.80;;;;;;4880947;29;20040;-81
2021/06/04 02:11:51;;;;;;;4.43;2.00;;;18.80;53.80;;;;;;4880788;29;20405;-79
2021/06/04 02:14:27;;;;;;;4.20;1.92;;;18.90;53.70;;;;;;4881036;29;20071;-79
2021/06/04 02:17:20;;;;;;;4.32;1.90;;;18.90;53.80;;;;;;4881021;29;20048;-78
2021/06/04 02:20:25;;;;;;;1.83;1.73;;;19.00;53.90;;;;;;4880533;29;20414;-81
2021/06/04 02:23:23;;;;;;;;;;;19.20;53.60;;;;;;4881445;29;20063;-80
2021/06/04 02:25:56;;;;;;;;;;;19.40;53.30;;;;;;4884845;29;20376;-80
2021/06/04 02:28:34;;;;;;;1.70;1.40;;;19.60;52.90;;;;;;4884507;29;20314;-81
2021/06/04 02:31:14;;;;;;;2.63;1.60;;;19.70;52.60;;;;;;4901299;29;20636;-79
2021/06/04 02:33:59;;;;;;;1.75;1.50;;;19.80;52.80;;;;;;4901218;29;20052;-77
2021/06/04 02:36:33;;;;;;;3.33;1.70;;;20.00;52.60;;;;;;4900839;29;20154;-82
2021/06/04 02:39:16;;;;;;;1.48;1.27;;;20.10;52.50;;;;;;4884126;29;20052;-81
2021/06/04 02:41:58;;;;;;;3.08;1.50;;;20.10;52.50;;;;;;4884554;29;20032;-80
2021/06/04 02:44:32;;;;;;;2.22;1.52;;;20.30;52.40;;;;;;4896303;29;20040;-81
2021/06/04 02:47:05;;;;;;;1.92;1.50;;;20.30;52.30;;;;;;4891354;29;20096;-81
2021/06/04 02:49:34;;;;;;;1.58;1.48;;;20.40;52.30;;;;;;4884132;29;20040;-81
2021/06/04 02:52:11;;;;;;;2.70;1.27;;;20.50;52.40;;;;;;4884065;29;20053;-81
2021/06/04 02:54:43;;;;;;;1.40;1.30;;;20.60;52.40;;;;;;4884053;29;20032;-82
2021/06/04 02:57:14;;;;;;;1.83;1.65;;;20.70;52.40;;;;;;4883648;29;20066;-81
2021/06/04 02:59:44;;;;;;;3.28;1.60;;;20.80;52.50;;;;;;4883509;29;20497;-82
2021/06/04 03:02:25;;;;;;;1.80;1.40;;;20.80;52.50;;;;;;4883485;29;20039;-82
2021/06/04 03:04:55;;;;;;;3.65;1.40;;;20.80;52.60;;;;;;4883778;29;20040;-82
2021/06/04 03:07:34;;;;;;;3.35;1.85;;;20.80;52.60;;;;;;4883735;29;20048;-82
2021/06/04 03:10:10;;;;;;;2.42;1.50;;;20.80;52.80;;;;;;4899230;29;20033;-82
2021/06/04 03:12:40;;;;;;;3.43;1.70;;;20.70;52.80;;;;;;4884258;29;20047;-82
2021/06/04 03:15:18;;;;;;;2.50;1.58;;;20.70;52.80;;;;;;4868505;29;20276;-79
2021/06/04 03:17:45;;;;;;;3.65;1.58;;;20.70;52.60;;;;;;4883650;29;20073;-79
2021/06/04 03:20:20;;;;;;;1.50;1.40;;;20.70;52.50;;;;;;4899888;29;20037;-77
2021/06/04 03:22:47;;;;;;;3.90;1.60;;;20.80;52.70;;;;;;4900124;29;20490;-78
2021/06/04 03:25:23;;;;;;;1.52;1.40;;;20.80;52.70;;;;;;4900250;29;20438;-77
2021/06/04 03:27:50;;;;;;;;;;;21.00;52.70;;;;;;4883893;29;20487;-77
2021/06/04 03:30:32;;;;;;;3.78;1.10;;;21.10;52.70;;;;;;4899083;29;19922;-79
2021/06/04 03:32:59;;;;;;;1.90;1.63;;;21.20;52.50;;;;;;4867889;29;20051;-77
2021/06/04 03:35:25;;;;;;;2.00;1.50;;;21.30;52.50;;;;;;4882253;29;20054;-79
2021/06/04 03:37:54;;;;;;;3.80;1.98;;;21.40;52.50;;;;;;4883396;29;20482;-82
2021/06/04 03:40:27;;;;;;;1.65;1.38;;;21.50;52.50;;;;;;4883095;29;20120;-76
2021/06/04 03:42:55;;;;;;;1.92;1.42;;;21.70;52.60;;;;;;4900210;29;20048;-78
2021/06/04 03:45:31;;;;;;;2.55;1.60;;;21.70;52.60;;;;;;4899691;29;20044;-76
2021/06/04 03:47:58;;;;;;;1.85;1.58;;;21.80;52.60;;;;;;4882889;29;20033;-76
2021/06/04 03:50:24;;;;;;;4.22;1.60;;;22.00;52.70;;;;;;4900039;29;20039;-76
2021/06/04 03:52:50;;;;;;;2.88;1.40;;;22.00;52.70;;;;;;4882648;29;20100;-76
2021/06/04 03:55:18;;;;;;;1.73;1.50;;;22.10;52.70;;;;;;4899926;29;20056;-75
2021/06/04 03:57:48;;;;;;;2.88;1.50;;;22.20;52.80;;;;;;4899448;29;20067;-84
2021/06/04 04:00:36;;;;;;;2.90;1.70;;;22.30;52.80;;;;;;4882568;29;20047;-74
2021/06/04 04:03:04;;;;;;;5.18;1.58;;;22.40;52.90;;;;;;4867554;29;20103;-74
2021/06/04 04:05:31;;;;;;;2.80;1.63;;;22.50;52.90;;;;;;4899387;29;20108;-76
2021/06/04 04:07:58;;;;;;;1.27;1.17;;;22.60;52.90;;;;;;4899110;29;20043;-77
2021/06/04 04:10:25;;;;;;;2.15;1.50;;;22.70;53.00;;;;;;4882270;29;20036;-77
2021/06/04 04:12:52;;;;;;;1.50;1.38;;;22.80;53.00;;;;;;4882313;29;20040;-81
2021/06/04 04:15:19;;;;;;;1.38;1.27;;;22.90;53.00;;;;;;4882412;29;20044;-78
2021/06/04 04:17:51;;;;;;;2.08;1.27;;;23.00;53.00;;;;;;4882308;29;20509;-76
2021/06/04 04:20:29;;;;;;;1.63;1.52;;;23.10;53.20;;;;;;4882184;29;20092;-74
2021/06/04 04:22:56;;;;;;;2.22;1.50;;;23.10;53.30;;;;;;4882192;29;20045;-76
2021/06/04 04:25:26;;;;;;;5.97;1.95;;;23.20;53.30;;;;;;4882587;29;20040;-79
2021/06/04 04:27:52;;;;;;;3.00;1.30;;;23.30;53.40;;;;;;4898946;29;20064;-80
2021/06/04 04:30:19;;;;;;;1.55;1.25;;;23.40;53.40;;;;;;4897310;29;20061;-78
2021/06/04 04:32:46;;;;;;;1.73;1.38;;;23.60;53.50;;;;;;4882250;29;20409;-79
2021/06/04 04:35:22;;;;;;;2.60;1.48;;;23.60;53.40;;;;;;4898742;29;20195;-78
2021/06/04 04:37:48;;;;;;;1.95;1.20;;;23.70;53.50;;;;;;4882028;29;20566;-83
2021/06/04 04:40:16;;;;;;;1.45;1.10;;;23.80;54.10;;;;;;4898577;29;20087;-81
2021/06/04 04:42:43;;;;;;;1.70;1.13;;;23.90;53.50;;;;;;4898567;29;20593;-72
2021/06/04 04:45:13;;;;;;;1.27;1.10;;;24.00;53.50;;;;;;4881803;29;20040;-73
2021/06/04 04:47:39;;;;;;;1.38;1.20;;;24.10;53.60;;;;;;4881573;29;20127;-75
2021/06/04 04:50:07;;;;;;;3.25;1.10;;;24.20;53.60;;;;;;4881979;29;20069;-77
2021/06/04 04:52:33;;;;;;;2.08;1.10;;;24.20;53.60;;;;;;4881572;29;20036;-75
2021/06/04 04:54:59;;;;;;;1.85;1.38;;;24.30;53.60;;;;;;4898505;29;20039;-75
2021/06/04 04:57:32;;;;;;;1.48;1.10;;;24.40;54.30;;;;;;4881597;29;20495;-77
2021/06/04 05:00:01;;;;;;;8.15;2.22;;;24.50;53.70;;;;;;4881485;29;20048;-82
2021/06/04 05:02:27;;;;;;;4.45;2.10;;;24.60;54.00;;;;;;4881739;29;20052;-83
2021/06/04 05:04:53;;;;;;;4.03;1.50;;;24.60;54.10;;;;;;4881194;29;20413;-81
2021/06/04 05:07:19;;;;;;;3.25;1.95;;;24.60;53.80;;;;;;4898286;29;20040;-78
2021/06/04 05:09:45;;;;;;;3.10;1.70;;;24.60;53.60;;;;;;4898168;29;20048;-77
2021/06/04 05:12:20;;;;;;;5.15;1.90;;;24.70;53.30;;;;;;4881793;29;20047;-82
2021/06/04 05:14:46;;;;;;;4.30;1.60;;;24.70;52.90;;;;;;4896481;29;20493;-80
2021/06/04 05:17:13;;;;;;;3.95;2.13;;;24.80;52.60;;;;;;4865663;29;20135;-81
2021/06/04 05:19:47;;;;;;;3.42;1.63;;;24.80;52.60;;;;;;4881165;29;20493;-78
2021/06/04 05:22:15;;;;;;;2.90;1.73;;;24.90;52.10;;;;;;4881760;29;20485;-75
2021/06/04 05:24:43;;;;;;;6.82;1.92;;;24.90;52.10;;;;;;4881537;29;20080;-73
2021/06/04 05:27:09;;;;;;;4.70;1.63;;;25.00;51.50;;;;;;4865583;29;20028;-74
2021/06/04 05:29:35;;;;;;;6.10;2.10;;;25.00;51.00;;;;;;4897548;29;20068;-73
2021/06/04 05:32:02;;;;;;;4.82;1.63;;;25.00;50.80;;;;;;4897910;29;20509;-74
2021/06/04 05:34:28;;;;;;;3.40;1.50;;;25.10;50.30;;;;;;4897488;29;20127;-74
2021/06/04 05:36:54;;;;;;;3.13;1.92;;;25.10;50.40;;;;;;4897324;29;20564;-74
2021/06/04 05:39:25;;;;;;;2.45;1.90;;;25.10;49.70;;;;;;4897525;29;20060;-73
2021/06/04 05:41:55;;;;;;;3.10;1.83;;;25.10;50.10;;;;;;4897453;29;20115;-74
2021/06/04 05:44:24;;;;;;;3.47;1.70;;;25.10;49.90;;;;;;4895792;29;20037;-74
2021/06/04 05:46:54;;;;;;;3.55;1.67;;;25.20;49.70;;;;;;4897741;29;20501;-74
2021/06/04 05:49:21;;;;;;;2.60;1.95;;;25.20;49.20;;;;;;4899131;29;20450;-74
2021/06/04 05:51:48;;;;;;;1.95;1.70;;;25.30;48.90;;;;;;4881199;29;20036;-73
2021/06/04 05:54:15;;;;;;;4.50;1.80;;;25.30;48.70;;;;;;4897515;29;20472;-74
2021/06/04 05:56:41;;;;;;;6.13;2.03;;;25.30;48.60;;;;;;4896378;29;20052;-74
2021/06/04 05:59:07;;;;;;;2.22;1.90;;;25.30;48.70;;;;;;4899733;29;20053;-75
2021/06/04 06:01:36;;;;;;;5.03;2.47;;;25.30;46.70;;;;;;4884234;29;20040;-73
2021/06/04 06:04:04;;;;;;;6.65;2.70;;;25.30;44.40;;;;;;4868836;29;20532;-75
2021/06/04 06:06:30;;;;;;;2.42;2.05;;;25.30;43.90;;;;;;4884863;29;20220;-74
2021/06/04 06:08:56;;;;;;;3.05;2.38;;;25.30;43.70;;;;;;4901435;29;20056;-82
2021/06/04 06:11:25;;;;;;;3.30;2.20;;;25.20;43.30;;;;;;4884149;29;20560;-73
2021/06/04 06:14:00;;;;;;;3.92;2.00;;;25.10;42.90;;;;;;4884269;29;20036;-73
2021/06/04 06:16:30;;;;;;;2.72;2.20;;;25.10;42.60;;;;;;4899944;29;20040;-73
2021/06/04 06:18:56;;;;;;;3.95;2.58;;;25.10;42.50;;;;;;4884270;29;20064;-76
2021/06/04 06:21:23;;;;;;;5.50;2.60;;;25.10;42.20;;;;;;4884458;29;20052;-79
2021/06/04 06:23:49;;;;;;;2.70;2.38;;;25.00;41.10;;;;;;4900791;29;20134;-76
2021/06/04 06:26:24;;;;;;;4.97;2.40;;;24.90;41.10;;;;;;4900678;29;20048;-77
2021/06/04 06:28:52;;;;;;;3.47;2.10;;;24.80;41.20;;;;;;4883993;29;20040;-77
2021/06/04 06:31:24;;;;;;;2.60;2.00;;;24.90;42.10;;;;;;4883631;29;20064;-75
2021/06/04 06:33:52;;;;;;;4.35;2.28;;;24.90;42.80;;;;;;4884175;29;20041;-76
2021/06/04 06:36:25;;;;;;;5.90;1.98;;;25.00;42.80;;;;;;4884228;29;20086;-78
2021/06/04 06:38:53;;;;;;;5.35;1.67;;;24.90;41.80;;;;;;4884049;29;20055;-78
2021/06/04 06:41:19;;;;;;;3.67;2.20;;;24.80;41.50;;;;;;4884069;29;20123;-77
2021/06/04 06:43:51;;;;;;;4.60;2.05;;;24.80;41.50;;;;;;4884048;29;20076;-76
2021/06/04 06:46:19;;;;;;;3.53;2.08;;;24.70;41.80;;;;;;4884474;29;20405;-76
2021/06/04 06:48:46;;;;;;;5.15;1.70;;;24.70;42.00;;;;;;4883785;29;20123;-75
2021/06/04 06:51:12;;;;;;;3.10;2.22;;;24.70;41.70;;;;;;4900569;29;20032;-74
2021/06/04 06:53:39;;;;;;;2.13;1.92;;;24.70;41.60;;;;;;4900251;29;20041;-74
2021/06/04 06:56:08;;;;;;;2.05;1.85;;;24.60;41.60;;;;;;4883554;29;20040;-75
2021/06/04 06:58:35;;;;;;;6.43;2.10;;;24.70;42.10;;;;;;4900094;29;20085;-74
2021/06/04 07:01:03;;;;;;;3.60;2.10;;;24.60;41.90;;;;;;4883490;29;20040;-74
2021/06/04 07:03:31;;;;;;;3.58;1.65;;;24.60;41.80;;;;;;4883140;29;20032;-77
2021/06/04 07:06:01;;;;;;;2.10;1.73;;;24.60;41.90;;;;;;4883410;29;20044;-77
2021/06/04 07:08:28;;;;;;;2.22;2.03;;;24.50;41.70;;;;;;4900098;29;20051;-77
2021/06/04 07:10:54;;;;;;;3.92;1.75;;;24.40;41.80;;;;;;4899892;29;20068;-77
2021/06/04 07:13:25;;;;;;;5.50;2.17;;;24.40;42.10;;;;;;4883186;29;20072;-86
2021/06/04 07:15:53;;;;;;;6.72;1.60;;;24.30;42.80;;;;;;4883036;29;20625;-75
2021/06/04 07:18:19;;;;;;;3.50;1.73;;;24.40;42.10;;;;;;4883115;29;20178;-76
2021/06/04 07:20:45;;;;;;;3.85;1.88;;;24.30;42.60;;;;;;4900090;29;20055;-77
2021/06/04 07:23:12;;;;;;;6.22;1.80;;;24.10;42.80;;;;;;4882884;29;20032;-75
2021/06/04 07:25:41;;;;;;;4.18;1.77;;;24.10;43.00;;;;;;4883230;29;20408;-74
2021/06/04 07:28:09;;;;;;;4.10;1.80;;;24.10;43.00;;;;;;4883167;29;20489;-75
2021/06/04 07:30:39;;;;;;;3.95;1.27;;;24.10;43.40;;;;;;4882799;29;20087;-77
2021/06/04 07:33:10;;;;;;;3.90;1.80;;;24.00;42.80;;;;;;4882932;29;20135;-74
2021/06/04 07:35:37;;;;;;;4.13;1.67;;;24.00;42.70;;;;;;4898213;29;20044;-75
2021/06/04 07:38:04;;;;;;;2.08;1.73;;;23.70;43.00;;;;;;4883063;29;20511;-74
2021/06/04 07:40:32;;;;;;;5.10;1.30;;;23.60;43.20;;;;;;4899222;29;20040;-74
2021/06/04 07:43:00;;;;;;;6.57;1.50;;;23.60;43.60;;;;;;4899598;29;20041;-73
2021/06/04 07:45:30;;;;;;;6.20;1.30;;;23.30;44.00;;;;;;4899363;29;20438;-75
2021/06/04 07:47:57;;;;;;;3.47;1.60;;;23.30;44.10;;;;;;4882721;29;20068;-75
2021/06/04 07:50:24;;;;;;;2.92;1.33;;;23.20;43.70;;;;;;4882496;29;20071;-74
2021/06/04 07:52:49;;;;;;;2.80;1.20;;;23.20;43.60;;;;;;4899578;29;20054;-75
2021/06/04 07:55:16;;;;;;;3.58;1.13;;;23.10;43.30;;;;;;4899549;29;20037;-75
2021/06/04 07:57:43;;;;;;;5.47;1.13;;;23.10;42.60;;;;;;4899281;29;20037;-74
2021/06/04 08:00:22;;;;;;;1.23;0.70;;;23.00;43.30;;;;;;4882595;29;20044;-74
2021/06/04 08:02:49;;;;;;;3.65;0.90;;;23.00;43.20;;;;;;4882506;29;20035;-75
2021/06/04 08:05:16;;;;;;;3.50;1.00;;;23.00;43.00;;;;;;4899174;29;20044;-74
2021/06/04 08:07:42;;;;;;;4.60;0.70;;;22.90;42.30;;;;;;4900057;29;20033;-74
2021/06/04 08:10:09;;;;;;;5.15;0.90;;;22.90;42.30;;;;;;4899609;29;20043;-74
2021/06/04 08:12:37;;;;;;;2.38;0.80;;;22.60;42.40;;;;;;4882484;29;20055;-74
2021/06/04 08:15:29;;;;;;;2.78;0.98;;;22.60;42.80;;;;;;4897761;29;20032;-74
2021/06/04 08:17:56;;;;;;;6.95;0.90;;;22.50;43.00;;;;;;4882020;29;20044;-72
2021/06/04 08:20:28;;;;;;;3.95;0.80;;;22.60;42.90;;;;;;4898956;29;20059;-75
2021/06/04 08:22:58;;;;;;;1.02;0.95;;;22.50;42.70;;;;;;4882511;29;20036;-75
2021/06/04 08:25:31;;;;;;;1.17;0.70;;;22.50;42.70;;;;;;4882453;29;20402;-76
2021/06/04 08:27:57;;;;;;;2.05;0.90;;;22.40;43.00;;;;;;4898921;29;20398;-76
2021/06/04 08:30:24;;;;;;;2.08;0.90;;;22.30;42.70;;;;;;4898692;29;20520;-80
2021/06/04 08:32:50;;;;;;;2.60;1.05;;;22.30;43.20;;;;;;4898815;29;20113;-75
2021/06/04 08:35:17;;;;;;;6.50;1.20;;;22.20;43.90;;;;;;4881778;29;20048;-75
2021/06/04 08:37:44;;;;;;;6.97;1.00;;;22.10;43.90;;;;;;4882436;29;20051;-79
2021/06/04 08:40:18;;;;;;;3.28;0.88;;;22.10;43.50;;;;;;4899708;29;20044;-78
2021/06/04 08:43:09;;;;;;;3.80;1.00;;;22.00;43.80;;;;;;4899790;29;20124;-80
2021/06/04 08:45:57;;;;;;;0.93;0.82;;;22.00;43.40;;;;;;4883599;29;20509;-78
2021/06/04 08:48:48;;;;;;;3.28;0.95;;;22.00;43.60;;;;;;4887897;29;20055;-82
2021/06/04 08:51:16;;;;;;;5.25;0.98;;;21.90;44.00;;;;;;4901556;29;20032;-80
2021/06/04 08:54:17;;;;;;;2.70;0.85;;;21.90;44.50;;;;;;4884464;29;20048;-79
2021/06/04 08:56:56;;;;;;;2.78;1.15;;;21.90;44.50;;;;;;4900663;29;20075;-81
2021/06/04 08:59:22;;;;;;;5.65;1.15;;;22.00;44.30;;;;;;4869252;29;20049;-74
2021/06/04 09:02:05;;;;;;;2.05;0.70;;;21.90;44.10;;;;;;4904280;29;20401;-75
2021/06/04 09:04:37;;;;;;;3.83;0.88;;;22.00;43.30;;;;;;4903184;29;20184;-74
2021/06/04 09:07:08;;;;;;;2.22;0.90;;;21.90;42.90;;;;;;4888171;29;20043;-75
2021/06/04 09:09:56;;;;;;;2.15;0.73;;;21.80;42.80;;;;;;4903546;29;20088;-75
2021/06/04 09:13:15;;;;;;;3.92;0.95;;;21.80;42.70;;;;;;4886948;29;20058;-77
2021/06/04 09:15:43;;;;;;;1.63;0.80;;;21.80;42.20;;;;;;4873096;29;20535;-75
2021/06/04 09:18:27;;;;;;;4.65;1.05;;;21.70;42.00;;;;;;4881248;29;20067;-76
2021/06/04 09:21:00;;;;;;;1.95;0.93;;;21.60;42.60;;;;;;4881235;29;20051;-76
2021/06/04 09:23:39;;;;;;;2.90;1.10;;;21.50;43.10;;;;;;4897917;29;20501;-75
2021/06/04 09:26:11;;;;;;;3.45;1.65;;;21.60;43.00;;;;;;4896558;29;20041;-75
2021/06/04 09:28:48;;;;;;;3.88;1.20;;;21.60;43.00;;;;;;4896647;29;20446;-75
2021/06/04 09:31:24;;;;;;;2.00;1.23;;;21.60;42.70;;;;;;4883307;29;20528;-75
2021/06/04 09:33:57;;;;;;;2.08;0.98;;;21.50;42.60;;;;;;4897469;29;20040;-77
2021/06/04 09:36:26;;;;;;;4.97;1.00;;;21.60;42.50;;;;;;4881161;29;20036;-76
2021/06/04 09:38:58;;;;;;;4.13;1.00;;;21.60;42.40;;;;;;4867781;29;20048;-76
2021/06/04 09:41:44;;;;;;;1.98;1.17;;;21.50;42.50;;;;;;4900927;29;20504;-76
2021/06/04 09:44:21;;;;;;;4.78;1.33;;;21.60;43.00;;;;;;4884463;29;20121;-75
2021/06/04 09:47:05;;;;;;;2.63;1.13;;;21.50;43.50;;;;;;4883961;29;20059;-73
2021/06/04 09:49:43;;;;;;;2.67;1.00;;;21.60;43.40;;;;;;4883728;29;20056;-75
2021/06/04 09:52:23;;;;;;;3.92;0.98;;;21.50;42.50;;;;;;4884183;29;20043;-74
2021/06/04 09:55:11;;;;;;;1.98;0.93;;;21.50;42.40;;;;;;4884955;29;20060;-75
2021/06/04 09:57:55;;;;;;;4.25;0.80;;;21.50;42.50;;;;;;4884538;29;20112;-76
2021/06/04 10:00:30;;;;;;;2.97;0.82;;;21.40;42.30;;;;;;4884129;29;20048;-75
2021/06/04 10:03:29;;;;;;;2.65;0.98;;;21.50;42.10;;;;;;4884233;29;20081;-73
2021/06/04 10:06:05;;;;;;;2.65;0.80;;;21.40;42.30;;;;;;4899972;29;20417;-74
2021/06/04 10:08:39;;;;;;;6.45;1.10;;;21.40;42.40;;;;;;4882989;29;20073;-74
2021/06/04 10:11:13;;;;;;;2.33;0.88;;;21.40;42.60;;;;;;4883877;29;20641;-77
2021/06/04 10:14:03;;;;;;;6.30;1.00;;;21.50;41.90;;;;;;4898119;29;20596;-81
2021/06/04 10:19:40;;;;;;;5.50;1.00;;;21.50;40.60;;;;;;4882751;29;20037;-74
2021/06/04 10:22:21;;;;;;;2.97;0.75;;;21.50;41.00;;;;;;4833526;29;20045;-74
2021/06/04 10:25:12;;;;;;;2.70;1.00;;;21.60;41.30;;;;;;4897391;29;20041;-73
2021/06/04 10:27:59;;;;;;;2.30;0.77;;;21.60;42.10;;;;;;4859133;29;20131;-73
2021/06/04 10:30:41;;;;;;;7.15;1.00;;;21.60;42.10;;;;;;4877072;29;20053;-73
2021/06/04 10:33:18;;;;;;;2.35;0.80;;;21.60;41.10;;;;;;4878897;29;20109;-74
2021/06/04 10:35:55;;;;;;;3.05;0.98;;;21.60;41.40;;;;;;4877196;29;20041;-74
2021/06/04 10:38:27;;;;;;;7.65;0.90;;;21.60;41.60;;;;;;4878962;29;20102;-76
2021/06/04 10:41:06;;;;;;;1.48;0.77;;;21.60;41.90;;;;;;4878460;29;20545;-75
2021/06/04 10:43:50;;;;;;;3.53;0.60;;;21.60;42.10;;;;;;4892923;29;20033;-79
2021/06/04 10:46:23;;;;;;;6.10;1.05;;;21.70;42.20;;;;;;4880759;29;20041;-76
2021/06/04 10:49:06;;;;;;;5.95;0.93;;;21.70;41.50;;;;;;4882088;29;20041;-75
2021/06/04 10:51:56;;;;;;;3.45;0.80;;;21.70;41.10;;;;;;4880769;29;20037;-74
2021/06/04 10:55:08;;;;;;;4.03;0.95;;;21.80;41.10;;;;;;4881727;29;20041;-73
2021/06/04 10:57:47;;;;;;;5.47;0.90;;;21.80;40.90;;;;;;4878731;29;20516;-74
2021/06/04 11:00:26;;;;;;;2.15;0.70;;;21.90;41.40;;;;;;4880614;29;20056;-74
2021/06/04 11:03:15;;;;;;;1.83;0.80;;;22.00;41.40;;;;;;4881282;29;20399;-75
2021/06/04 11:06:11;;;;;;;4.20;1.02;;;22.00;41.50;;;;;;4880506;29;20582;-74
2021/06/04 11:09:01;;;;;;;5.68;1.00;;;22.00;41.20;;;;;;4880357;29;20124;-76
2021/06/04 11:11:46;;;;;;;1.08;0.90;;;22.10;40.80;;;;;;4880842;29;20399;-77
2021/06/04 11:14:19;;;;;;;3.67;0.50;;;22.10;41.10;;;;;;4880416;29;20059;-76
2021/06/04 11:17:07;;;;;;;2.53;0.80;;;22.10;41.40;;;;;;4881755;29;20032;-77
2021/06/04 11:20:00;;;;;;;3.65;0.93;;;22.20;41.30;;;;;;4880161;29;20147;-77
2021/06/04 11:22:42;;;;;;;1.13;0.75;;;22.20;41.20;;;;;;4880357;29;20045;-76
2021/06/04 11:25:39;;;;;;;5.78;0.63;;;22.20;41.30;;;;;;4881544;29;20079;-73
2021/06/04 11:28:41;;;;;;;2.33;0.80;;;22.20;41.70;;;;;;4861118;29;20053;-76
2021/06/04 11:31:30;;;;;;;2.35;0.70;;;22.20;41.50;;;;;;4894541;29;20091;-77
2021/06/04 11:34:00;;;;;;;2.03;0.90;;;22.30;41.90;;;;;;4861656;29;20045;-79
2021/06/04 11:36:28;;;;;;;2.22;0.70;;;22.30;41.70;;;;;;4867619;29;20539;-77
2021/06/04 11:38:59;;;;;;;1.27;0.85;;;22.30;41.80;;;;;;4899694;29;20081;-77
2021/06/04 11:41:47;;;;;;;2.08;0.90;;;22.30;42.00;;;;;;4883159;29;20398;-77
2021/06/04 11:44:41;;;;;;;4.72;0.68;;;22.30;41.80;;;;;;4899246;29;20531;-77
2021/06/04 11:47:13;;;;;;;3.78;0.80;;;22.30;41.40;;;;;;4899504;29;20041;-76
2021/06/04 11:50:21;;;;;;;2.05;0.63;;;22.30;41.60;;;;;;4899762;29;20037;-75
2021/06/04 11:52:49;;;;;;;6.15;0.73;;;22.30;41.70;;;;;;4889921;29;20047;-75
2021/06/04 11:55:25;;;;;;;1.50;0.50;;;22.40;41.70;;;;;;4899996;29;20405;-74
2021/06/04 11:57:51;;;;;;;0.80;0.65;;;22.30;41.50;;;;;;4899337;29;20067;-74
2021/06/04 12:00:27;;;;;;;3.38;0.60;;;22.30;41.30;;;;;;4899227;29;20505;-74
2021/06/04 12:03:05;;;;;;;1.48;0.57;;;22.30;41.60;;;;;;4899354;29;20041;-75
2021/06/04 12:05:31;;;;;;;4.57;0.50;;;22.30;41.80;;;;;;4882476;29;20115;-77
2021/06/04 12:08:21;;;;;;;2.10;0.55;;;22.40;41.90;;;;;;4899180;29;20132;-74
2021/06/04 12:10:53;;;;;;;3.20;0.50;;;22.40;41.30;;;;;;4899221;29;20048;-75
2021/06/04 12:13:40;;;;;;;2.42;0.60;;;22.40;41.00;;;;;;4882186;29;20401;-73
2021/06/04 12:19:17;;;;;;;2.05;0.60;;;22.40;41.20;;;;;;4898869;29;20505;-72
2021/06/04 12:21:43;;;;;;;4.25;0.80;;;22.40;41.50;;;;;;4899093;29;20068;-72
2021/06/04 12:24:21;;;;;;;2.88;0.65;;;22.40;41.40;;;;;;4898837;29;20072;-71
2021/06/04 12:26:54;;;;;;;5.22;0.70;;;22.40;41.30;;;;;;4882073;29;20068;-72
2021/06/04 12:29:24;;;;;;;1.58;0.60;;;22.40;41.40;;;;;;4882154;29;20127;-72
2021/06/04 12:32:12;;;;;;;3.08;0.70;;;22.40;41.60;;;;;;4881855;29;20091;-72
2021/06/04 12:34:38;;;;;;;5.40;0.70;;;22.50;41.50;;;;;;4882032;29;20119;-72
2021/06/04 12:37:10;;;;;;;3.40;0.60;;;22.40;41.40;;;;;;4882036;29;20482;-72
2021/06/04 12:39:49;;;;;;;1.38;0.52;;;22.50;41.60;;;;;;4898524;29;20052;-72
2021/06/04 12:42:24;;;;;;;2.63;0.70;;;22.40;41.80;;;;;;4882150;29;20048;-72
2021/06/04 12:44:52;;;;;;;1.48;0.65;;;22.50;41.80;;;;;;4882128;29;20044;-72
2021/06/04 12:47:30;;;;;;;2.47;0.77;;;22.50;41.70;;;;;;4881749;29;20048;-71
2021/06/04 12:50:23;;;;;;;2.55;0.60;;;22.50;41.70;;;;;;4881806;29;20041;-72
2021/06/04 12:52:51;;;;;;;0.93;0.60;;;22.50;41.20;;;;;;4881775;29;20040;-72
2021/06/04 12:55:23;;;;;;;3.28;0.50;;;22.50;41.30;;;;;;4881541;29;20520;-74
2021/06/04 12:57:49;;;;;;;3.20;0.52;;;22.50;41.70;;;;;;4882303;29;20095;-82
2021/06/04 13:00:25;;;;;;;2.42;0.73;;;22.50;41.80;;;;;;4898134;29;20040;-84
2021/06/04 13:02:55;;;;;;;3.17;0.80;;;22.50;42.10;;;;;;4882570;29;20045;-84
2021/06/04 13:05:28;;;;;;;3.40;0.60;;;22.50;42.30;;;;;;4899360;29;20501;-85
2021/06/04 13:07:56;;;;;;;1.23;0.50;;;22.50;42.40;;;;;;4882273;29;20036;-80
2021/06/04 13:10:25;;;;;;;3.65;0.50;;;22.60;42.30;;;;;;4898646;29;20096;-77
2021/06/04 13:13:09;;;;;;;2.58;0.70;;;22.60;42.60;;;;;;4898586;29;20048;-78
2021/06/04 13:15:36;;;;;;;4.10;0.90;;;22.60;42.80;;;;;;4882140;29;20051;-80
2021/06/04 13:18:05;;;;;;;2.72;0.70;;;22.60;43.10;;;;;;4881772;29;20515;-79
2021/06/04 13:20:34;;;;;;;9.20;0.82;;;22.60;42.90;;;;;;4881317;29;20104;-78
2021/06/04 13:23:30;;;;;;;4.55;0.85;;;22.60;43.10;;;;;;4898475;29;20048;-74
2021/06/04 13:26:35;;;;;;;3.65;0.70;;;22.60;42.50;;;;;;4898369;29;20040;-80
2021/06/04 13:29:05;;;;;;;1.73;0.68;;;22.60;42.70;;;;;;4898421;29;20056;-74